createdAt,value
2023-05-09T00:00:18.579Z,10.01
2023-05-09T00:02:30.649Z,10.06
2023-05-09T00:04:41.740Z,10.07
2023-05-09T00:06:54.712Z,10.03
2023-05-09T00:09:05.825Z,9.97
2023-05-09T00:11:17.940Z,9.94
2023-05-09T00:13:30.902Z,9.88
2023-05-09T00:15:42.949Z,9.85
2023-05-09T00:17:54.757Z,9.83
2023-05-09T00:18:54.138Z,9.79
2023-05-09T00:21:07.181Z,9.83
2023-05-09T00:23:19.209Z,9.79
2023-05-09T00:25:30.918Z,9.70
2023-05-09T00:27:42.491Z,9.64
2023-05-09T00:29:57.120Z,9.71
2023-05-09T00:32:08.652Z,9.71
2023-05-09T00:34:20.673Z,9.68
2023-05-09T00:36:32.775Z,9.68
2023-05-09T00:38:44.887Z,9.56
2023-05-09T00:40:56.940Z,9.49
2023-05-09T00:43:09.904Z,9.50
2023-05-09T00:45:21.085Z,9.45
2023-05-09T00:47:33.170Z,9.48
2023-05-09T00:49:45.761Z,9.48
2023-05-09T00:51:57.317Z,9.46
2023-05-09T00:54:09.415Z,9.40
2023-05-09T00:56:21.478Z,9.48
2023-05-09T00:58:33.562Z,9.43
2023-05-09T01:00:45.678Z,9.46
2023-05-09T01:02:57.788Z,9.42
2023-05-09T01:05:10.870Z,9.43
2023-05-09T01:07:22.933Z,9.35
2023-05-09T01:09:35.528Z,9.34
2023-05-09T01:11:47.100Z,9.25
2023-05-09T01:14:00.100Z,9.21
2023-05-09T01:16:11.245Z,9.15
2023-05-09T01:18:23.309Z,9.15
2023-05-09T01:20:35.395Z,9.04
2023-05-09T01:22:47.502Z,9.06
2023-05-09T01:24:59.568Z,9.04
2023-05-09T01:27:12.553Z,9.01
2023-05-09T01:29:23.815Z,8.97
2023-05-09T01:31:35.833Z,8.97
2023-05-09T01:33:47.905Z,8.93
2023-05-09T01:35:59.973Z,8.87
2023-05-09T01:38:12.056Z,8.83
2023-05-09T01:40:24.168Z,8.78
2023-05-09T01:42:37.101Z,8.79
2023-05-09T01:44:48.312Z,8.76
2023-05-09T01:47:01.406Z,8.71
2023-05-09T01:49:13.456Z,8.72
2023-05-09T01:51:25.517Z,8.73
2023-05-09T01:53:37.597Z,8.72
2023-05-09T01:55:49.700Z,8.75
2023-05-09T01:58:02.642Z,8.81
2023-05-09T02:00:14.891Z,8.84
2023-05-09T02:02:26.011Z,8.81
2023-05-09T02:04:38.002Z,8.78
2023-05-09T02:06:50.088Z,8.73
2023-05-09T02:09:03.156Z,8.66
2023-05-09T02:11:15.226Z,8.58
2023-05-09T02:13:27.362Z,8.57
2023-05-09T02:15:39.388Z,8.55
2023-05-09T02:17:51.804Z,8.54
2023-05-09T02:20:05.739Z,8.48
2023-05-09T02:22:17.901Z,8.42
2023-05-09T02:24:29.013Z,8.42
2023-05-09T02:26:41.081Z,8.37
2023-05-09T02:28:53.221Z,8.35
2023-05-09T02:31:05.251Z,8.32
2023-05-09T02:33:17.329Z,8.22
2023-05-09T02:35:30.335Z,8.21
2023-05-09T02:37:41.515Z,8.15
2023-05-09T02:39:53.625Z,8.14
2023-05-09T02:42:05.700Z,8.15
2023-05-09T02:44:17.748Z,8.11
2023-05-09T02:46:30.846Z,8.04
2023-05-09T02:48:43.893Z,8.00
2023-05-09T02:50:55.986Z,8.03
2023-05-09T02:53:08.059Z,7.99
2023-05-09T02:55:20.150Z,8.04
2023-05-09T02:57:32.334Z,8.10
2023-05-09T02:59:44.420Z,8.04
2023-05-09T03:01:56.676Z,8.03
2023-05-09T03:04:08.573Z,7.99
2023-05-09T03:06:20.659Z,7.96
2023-05-09T03:08:32.736Z,7.94
2023-05-09T03:10:44.821Z,7.89
2023-05-09T03:12:57.445Z,7.84
2023-05-09T03:15:08.952Z,7.84
2023-05-09T03:17:22.096Z,7.93
2023-05-09T03:19:34.115Z,7.90
2023-05-09T03:21:46.199Z,8.00
2023-05-09T03:23:58.438Z,7.96
2023-05-09T03:26:10.373Z,7.96
2023-05-09T03:28:22.445Z,7.90
2023-05-09T03:30:34.533Z,7.90
2023-05-09T03:32:47.654Z,7.87
2023-05-09T03:34:59.682Z,7.90
2023-05-09T03:37:11.746Z,7.90
2023-05-09T03:39:23.830Z,7.85
2023-05-09T03:41:35.937Z,7.85
2023-05-09T03:43:48.016Z,7.84
2023-05-09T03:46:01.108Z,7.94
2023-05-09T03:48:13.226Z,8.02
2023-05-09T03:50:27.630Z,8.08
2023-05-09T03:52:38.212Z,8.04
2023-05-09T03:54:49.442Z,8.12
2023-05-09T03:57:01.534Z,8.17
2023-05-09T03:59:14.458Z,8.15
2023-05-09T04:01:26.541Z,8.14
2023-05-09T04:03:37.879Z,8.21
2023-05-09T04:05:49.824Z,8.22
2023-05-09T04:08:02.808Z,8.22
2023-05-09T04:10:13.984Z,8.22
2023-05-09T04:12:26.946Z,8.21
2023-05-09T04:14:38.127Z,8.25
2023-05-09T04:16:50.240Z,8.32
2023-05-09T04:19:02.324Z,8.36
2023-05-09T04:21:14.899Z,8.45
2023-05-09T04:23:26.462Z,8.58
2023-05-09T04:25:40.411Z,8.68
2023-05-09T04:27:51.594Z,8.75
2023-05-09T04:30:04.683Z,8.79
2023-05-09T04:32:17.320Z,8.86
2023-05-09T04:34:29.785Z,8.90
2023-05-09T04:36:40.927Z,8.90
2023-05-09T04:38:53.582Z,8.97
2023-05-09T04:41:05.092Z,9.05
2023-05-09T04:43:18.072Z,9.15
2023-05-09T04:45:30.207Z,9.18
2023-05-09T04:47:42.259Z,9.27
2023-05-09T04:49:53.424Z,9.35
2023-05-09T04:52:05.543Z,9.45
2023-05-09T04:54:17.575Z,9.58
2023-05-09T04:56:29.652Z,9.71
2023-05-09T04:58:42.629Z,9.79
2023-05-09T05:00:53.797Z,9.86
2023-05-09T05:03:05.984Z,9.99
2023-05-09T05:05:18.053Z,10.12
2023-05-09T05:07:30.946Z,10.24
2023-05-09T05:09:42.118Z,10.34
2023-05-09T05:12:00.854Z,10.44
2023-05-09T05:14:06.311Z,10.58
2023-05-09T05:16:21.814Z,10.71
2023-05-09T05:18:31.332Z,10.80
2023-05-09T05:20:43.554Z,10.95
2023-05-09T05:22:54.924Z,11.13
2023-05-09T05:25:07.018Z,11.27
2023-05-09T05:27:19.072Z,11.38
2023-05-09T05:29:31.142Z,11.57
2023-05-09T05:31:44.163Z,11.71
2023-05-09T05:33:55.308Z,11.75
2023-05-09T05:36:08.322Z,11.68
2023-05-09T05:38:19.477Z,11.75
2023-05-09T05:40:31.593Z,11.89
2023-05-09T05:42:43.735Z,12.13
2023-05-09T05:44:55.760Z,12.27
2023-05-09T05:47:07.887Z,12.57
2023-05-09T05:49:19.937Z,12.75
2023-05-09T05:51:33.535Z,12.84
2023-05-09T05:53:44.076Z,12.96
2023-05-09T05:55:57.141Z,12.95
2023-05-09T05:58:09.252Z,13.14
2023-05-09T06:00:21.325Z,13.18
2023-05-09T06:02:33.643Z,13.43
2023-05-09T06:04:45.496Z,13.46
2023-05-09T06:06:57.552Z,13.56
2023-05-09T06:09:10.622Z,13.84
2023-05-09T06:11:21.711Z,13.77
2023-05-09T06:13:33.828Z,13.69
2023-05-09T06:15:45.862Z,14.02
2023-05-09T06:17:58.022Z,14.39
2023-05-09T06:20:10.070Z,14.50
2023-05-09T06:22:22.132Z,14.43
2023-05-09T06:24:36.101Z,14.49
2023-05-09T06:26:46.267Z,14.43
2023-05-09T06:28:58.342Z,14.37
2023-05-09T06:31:10.489Z,14.34
2023-05-09T06:33:22.511Z,14.37
2023-05-09T06:35:34.622Z,14.56
2023-05-09T06:37:48.603Z,14.72
2023-05-09T06:39:58.782Z,14.61
2023-05-09T06:42:10.890Z,14.64
2023-05-09T06:44:22.946Z,14.54
2023-05-09T06:46:35.111Z,14.46
2023-05-09T06:48:47.109Z,14.44
2023-05-09T06:50:59.177Z,14.47
2023-05-09T06:53:12.736Z,14.60
2023-05-09T06:55:24.242Z,14.60
2023-05-09T06:57:36.374Z,14.91
2023-05-09T06:59:47.496Z,15.12
2023-05-09T07:02:00.574Z,15.28
2023-05-09T07:04:11.757Z,15.38
2023-05-09T07:06:24.809Z,15.49
2023-05-09T07:08:37.779Z,15.46
2023-05-09T07:10:49.867Z,15.60
2023-05-09T07:13:01.093Z,15.63
2023-05-09T07:15:13.359Z,15.86
2023-05-09T07:17:26.151Z,15.78
2023-05-09T07:19:37.321Z,15.74
2023-05-09T07:21:49.381Z,15.75
2023-05-09T07:24:03.341Z,16.06
2023-05-09T07:26:13.570Z,16.33
2023-05-09T07:28:25.614Z,16.53
2023-05-09T07:30:38.013Z,16.31
2023-05-09T07:32:51.125Z,16.33
2023-05-09T07:35:03.175Z,16.26
2023-05-09T07:37:16.451Z,16.50
2023-05-09T07:39:28.594Z,16.75
2023-05-09T07:41:42.182Z,16.56
2023-05-09T07:43:53.277Z,16.48
2023-05-09T07:44:52.718Z,16.55
2023-05-09T07:47:04.801Z,16.96
2023-05-09T07:49:19.258Z,17.11
2023-05-09T07:51:28.970Z,17.03
2023-05-09T07:53:41.052Z,16.83
2023-05-09T07:55:53.098Z,16.90
2023-05-09T07:58:05.191Z,16.80
2023-05-09T08:00:18.186Z,16.62
2023-05-09T08:02:30.417Z,16.59
2023-05-09T08:04:41.867Z,16.45
2023-05-09T08:06:54.465Z,16.67
2023-05-09T08:09:05.601Z,17.38
2023-05-09T08:11:17.693Z,18.09
2023-05-09T08:13:30.743Z,18.29
2023-05-09T08:15:41.905Z,18.54
2023-05-09T08:17:53.947Z,18.61
2023-05-09T08:20:06.014Z,18.47
2023-05-09T08:22:18.119Z,17.95
2023-05-09T08:24:30.183Z,18.13
2023-05-09T08:26:43.166Z,18.33
2023-05-09T08:28:54.318Z,18.33
2023-05-09T08:31:06.457Z,18.33
2023-05-09T08:33:18.554Z,18.07
2023-05-09T08:35:30.642Z,18.31
2023-05-09T08:37:42.737Z,18.19
2023-05-09T08:39:54.798Z,18.83
2023-05-09T08:42:06.880Z,19.15
2023-05-09T08:44:18.984Z,19.47
2023-05-09T08:46:32.078Z,19.25
2023-05-09T08:48:45.010Z,19.60
2023-05-09T08:50:58.061Z,20.13
2023-05-09T08:53:08.259Z,20.15
2023-05-09T08:55:20.349Z,20.08
2023-05-09T08:57:32.445Z,20.54
2023-05-09T08:59:46.016Z,20.54
2023-05-09T09:02:00.014Z,20.71
2023-05-09T09:04:11.144Z,20.80
2023-05-09T09:06:23.215Z,20.69
2023-05-09T09:08:37.175Z,20.53
2023-05-09T09:10:47.695Z,20.62
2023-05-09T09:13:00.093Z,20.64
2023-05-09T09:15:11.593Z,20.81
2023-05-09T09:17:23.730Z,20.80
2023-05-09T09:19:35.752Z,21.04
2023-05-09T09:21:47.850Z,21.54
2023-05-09T09:23:59.892Z,21.57
2023-05-09T09:26:13.262Z,21.63
2023-05-09T09:28:25.431Z,21.30
2023-05-09T09:30:37.420Z,21.50
2023-05-09T09:32:50.569Z,21.23
2023-05-09T09:35:02.576Z,20.87
2023-05-09T09:37:48.587Z,20.98
2023-05-09T09:40:06.395Z,21.09
2023-05-09T09:44:40.737Z,21.59
